Platzwetter Flugplatz Wels

Flugwetter Linz LOWL

[Quelle: ADDS]
METAR
LOWL 200020Z AUTO 00000KT 9999 NSC 15/14 Q1022 =
LOWL 192315Z 2000/2024 VRB02KT CAVOK TX27/2015Z TN13/2004Z BECMG 2002/2004 1200 BCFG NSC BECMG 2004/2006 0300 FG BKN001 BECMG 2006/2009 9999 FEW040 BECMG 2015/2017 CAVOK
TAF
LOWL 192315Z 2000/2024 VRB02KT CAVOK TX27/2015Z TN13/2004Z BECMG 2002/2004 1200 BCFG NSC BECMG 2004/2006 0300 FG BKN001 BECMG 2006/2009 9999 FEW040 BECMG 2015/2017 CAVOK =

Flugwetter Salzburg LOWS

[Quelle: ADDS]
METAR
LOWS 200020Z AUTO 16007KT 9999 FEW170 15/13 Q1022 =
LOWS 192315Z 2000/2024 15006KT CAVOK TX28/2014Z TN15/2003Z BECMG 2008/2010 01005KT TEMPO 2011/2016 05008KT 9999 FEW050 BECMG 2016/2018 15005KT
TAF
LOWS 192315Z 2000/2024 15006KT CAVOK TX28/2014Z TN15/2003Z BECMG 2008/2010 01005KT TEMPO 2011/2016 05008KT 9999 FEW050 BECMG 2016/2018 15005KT =

Wind - Verlauf

Windrichtung - Verlauf

Temperatur - Verlauf

Relative Luftfeuchtigkeit - Verlauf

Luftdruck - Verlauf


JU 52 Nostalgie-Rundflüge - hier am Flugplatz Wels!

Tickets, Termine und Infos, hier am Flugplatz Wels. Tickethotline +43 7242 26499 0

Pilot für einen Tag - Erfülle Dir den Traum vom Fliegen!

Werde einen Tag lang Pilot bei und mit dem Fliegerclub Weiße Möwe in Wels!

Stadt - Wels

Ausflugsziele & Sehenswürdigkeiten
in Wels und Umgebung

Cookies erleichtern die Bereitstellung unserer Dienste. Mit der Nutzung unserer Dienste erklären Sie sich damit einverstanden, dass wir Cookies verwenden.
Weitere Informationen Ok